createdAt,value
2023-01-27T00:01:10.915Z,0.69
2023-01-27T00:03:38.568Z,0.68
2023-01-27T00:06:06.519Z,0.66
2023-01-27T00:08:34.506Z,0.66
2023-01-27T00:11:20.738Z,0.67
2023-01-27T00:13:48.647Z,0.68
2023-01-27T00:16:16.471Z,0.69
2023-01-27T00:18:44.268Z,0.69
2023-01-27T00:21:30.716Z,0.67
2023-01-27T00:24:17.191Z,0.66
2023-01-27T00:26:44.899Z,0.65
2023-01-27T00:29:13.442Z,0.65
2023-01-27T00:31:59.750Z,0.66
2023-01-27T00:34:27.487Z,0.65
2023-01-27T00:36:55.205Z,0.65
2023-01-27T00:39:23.008Z,0.67
2023-01-27T00:41:50.699Z,0.67
2023-01-27T00:44:18.310Z,0.68
2023-01-27T00:46:46.065Z,0.68
2023-01-27T00:49:13.821Z,0.70
2023-01-27T00:51:42.239Z,0.71
2023-01-27T00:54:10.327Z,0.71
2023-01-27T00:56:38.542Z,0.70
2023-01-27T00:59:06.726Z,0.69
2023-01-27T01:01:35.186Z,0.69
2023-01-27T01:04:03.649Z,0.67
2023-01-27T01:06:31.874Z,0.65
2023-01-27T01:08:59.625Z,0.62
2023-01-27T01:11:27.687Z,0.61
2023-01-27T01:13:56.560Z,0.61
2023-01-27T01:16:25.628Z,0.61
2023-01-27T01:18:54.099Z,0.61
2023-01-27T01:21:22.028Z,0.61
2023-01-27T01:23:50.134Z,0.59
2023-01-27T01:26:18.720Z,0.58
2023-01-27T01:28:47.092Z,0.57
2023-01-27T01:31:17.901Z,0.57
2023-01-27T01:33:47.311Z,0.57
2023-01-27T01:36:18.673Z,0.58
2023-01-27T01:38:46.840Z,0.58
2023-01-27T01:41:18.459Z,0.58
2023-01-27T01:43:48.268Z,0.59
2023-01-27T01:46:16.826Z,0.59
2023-01-27T01:48:58.463Z,0.59
2023-01-27T01:51:40.240Z,0.60
2023-01-27T01:54:17.036Z,0.61
2023-01-27T01:56:58.138Z,0.62
2023-01-27T01:59:35.468Z,0.62
2023-01-27T02:02:07.378Z,0.62
2023-01-27T02:04:42.511Z,0.62
2023-01-27T02:07:19.894Z,0.62
2023-01-27T02:09:47.787Z,0.64
2023-01-27T02:12:15.582Z,0.64
2023-01-27T02:14:43.306Z,0.63
2023-01-27T02:17:13.058Z,0.61
2023-01-27T02:20:05.249Z,0.61
2023-01-27T02:22:35.894Z,0.61
2023-01-27T02:25:15.519Z,0.63
2023-01-27T02:27:43.418Z,0.65
2023-01-27T02:30:11.459Z,0.66
2023-01-27T02:32:40.206Z,0.68
2023-01-27T02:35:14.170Z,0.69
2023-01-27T02:37:42.438Z,0.69
2023-01-27T02:40:12.363Z,0.68
2023-01-27T02:42:39.970Z,0.69
2023-01-27T02:45:08.033Z,0.69
2023-01-27T02:47:35.981Z,0.70
2023-01-27T02:50:03.929Z,0.72
2023-01-27T02:52:31.914Z,0.74
2023-01-27T02:54:59.826Z,0.76
2023-01-27T02:57:27.555Z,0.77
2023-01-27T03:00:13.273Z,0.77
2023-01-27T03:02:41.041Z,0.77
2023-01-27T03:05:09.102Z,0.78
2023-01-27T03:07:36.769Z,0.78
2023-01-27T03:10:04.819Z,0.77
2023-01-27T03:12:32.495Z,0.77
2023-01-27T03:15:19.000Z,0.75
2023-01-27T03:18:05.759Z,0.74
2023-01-27T03:20:33.932Z,0.73
2023-01-27T03:23:01.673Z,0.72
2023-01-27T03:25:29.485Z,0.72
2023-01-27T03:27:57.698Z,0.71
2023-01-27T03:30:48.527Z,0.73
2023-01-27T03:33:23.138Z,0.76
2023-01-27T03:36:20.845Z,0.76
2023-01-27T03:39:09.291Z,0.76
2023-01-27T03:41:55.732Z,0.75
2023-01-27T03:44:44.993Z,0.73
2023-01-27T03:47:12.599Z,0.72
2023-01-27T03:49:40.315Z,0.72
2023-01-27T03:52:07.965Z,0.72
2023-01-27T03:54:35.625Z,0.72
2023-01-27T03:57:06.145Z,0.73
2023-01-27T03:59:34.292Z,0.75
2023-01-27T04:02:20.916Z,0.76
2023-01-27T04:05:07.280Z,0.77
2023-01-27T04:07:36.221Z,0.79
2023-01-27T04:10:05.323Z,0.79
2023-01-27T04:12:33.005Z,0.79
2023-01-27T04:15:00.671Z,0.77
2023-01-27T04:17:28.350Z,0.78
2023-01-27T04:19:56.214Z,0.79
2023-01-27T04:22:23.805Z,0.81
2023-01-27T04:24:51.546Z,0.82
2023-01-27T04:27:20.378Z,0.83
2023-01-27T04:29:48.714Z,0.84
2023-01-27T04:32:16.385Z,0.85
2023-01-27T04:34:43.963Z,0.85
2023-01-27T04:37:11.810Z,0.84
2023-01-27T04:39:41.306Z,0.85
2023-01-27T04:42:09.002Z,0.86
2023-01-27T04:44:36.669Z,0.85
2023-01-27T04:47:04.355Z,0.86
2023-01-27T04:49:31.998Z,0.85
2023-01-27T04:51:59.688Z,0.86
2023-01-27T04:54:27.287Z,0.85
2023-01-27T04:56:58.548Z,0.84
2023-01-27T04:59:26.923Z,0.84
2023-01-27T05:01:54.871Z,0.82
2023-01-27T05:04:22.786Z,0.80
2023-01-27T05:06:50.539Z,0.77
2023-01-27T05:09:18.248Z,0.75
2023-01-27T05:11:45.902Z,0.72
2023-01-27T05:14:14.729Z,0.71
2023-01-27T05:16:42.516Z,0.68
2023-01-27T05:19:10.143Z,0.68
2023-01-27T05:21:37.833Z,0.67
2023-01-27T05:24:05.723Z,0.66
2023-01-27T05:26:33.453Z,0.66
2023-01-27T05:29:01.154Z,0.65
2023-01-27T05:31:31.750Z,0.64
2023-01-27T05:34:02.023Z,0.63
2023-01-27T05:36:30.440Z,0.62
2023-01-27T05:38:59.139Z,0.63
2023-01-27T05:41:31.069Z,0.63
2023-01-27T05:43:58.868Z,0.64
2023-01-27T05:46:29.331Z,0.65
2023-01-27T05:49:00.385Z,0.67
2023-01-27T05:51:33.850Z,0.69
2023-01-27T05:54:01.659Z,0.70
2023-01-27T05:56:29.425Z,0.71
2023-01-27T05:58:58.327Z,0.72
2023-01-27T06:01:29.284Z,0.73
2023-01-27T06:03:57.011Z,0.73
2023-01-27T06:06:27.170Z,0.72
2023-01-27T06:08:55.077Z,0.73
2023-01-27T06:11:24.318Z,0.74
2023-01-27T06:13:53.116Z,0.74
2023-01-27T06:16:22.356Z,0.74
2023-01-27T06:18:50.308Z,0.74
2023-01-27T06:21:18.438Z,0.76
2023-01-27T06:23:46.169Z,0.77
2023-01-27T06:26:18.895Z,0.79
2023-01-27T06:28:46.753Z,0.81
2023-01-27T06:31:17.384Z,0.80
2023-01-27T06:33:45.334Z,0.80
2023-01-27T06:36:18.798Z,0.80
2023-01-27T06:38:47.084Z,0.81
2023-01-27T06:41:15.293Z,0.81
2023-01-27T06:43:42.945Z,0.84
2023-01-27T06:46:10.769Z,0.84
2023-01-27T06:48:38.453Z,0.85
2023-01-27T06:51:06.853Z,0.85
2023-01-27T06:53:37.222Z,0.87
2023-01-27T06:56:05.976Z,0.87
2023-01-27T06:58:33.650Z,0.87
2023-01-27T07:01:01.623Z,0.87
2023-01-27T07:03:29.859Z,0.89
2023-01-27T07:05:58.227Z,0.90
2023-01-27T07:08:26.912Z,0.90
2023-01-27T07:10:54.626Z,0.92
2023-01-27T07:13:22.597Z,0.92
2023-01-27T07:15:55.449Z,0.94
2023-01-27T07:18:23.403Z,0.94
2023-01-27T07:20:51.553Z,0.94
2023-01-27T07:23:19.216Z,0.95
2023-01-27T07:25:46.850Z,0.96
2023-01-27T07:28:14.505Z,0.96
2023-01-27T07:30:43.985Z,0.98
2023-01-27T07:33:14.414Z,1.00
2023-01-27T07:35:43.202Z,1.03
2023-01-27T07:38:11.150Z,1.05
2023-01-27T07:40:38.840Z,1.08
2023-01-27T07:43:06.652Z,1.12
2023-01-27T07:45:35.683Z,1.16
2023-01-27T07:48:07.035Z,1.20
2023-01-27T07:50:36.208Z,1.26
2023-01-27T07:53:05.236Z,1.31
2023-01-27T07:55:33.994Z,1.39
2023-01-27T07:58:02.243Z,1.49
2023-01-27T08:00:30.880Z,1.58
2023-01-27T08:02:59.708Z,1.68
2023-01-27T08:05:28.462Z,1.78
2023-01-27T08:07:58.573Z,1.89
2023-01-27T08:10:26.709Z,2.00
2023-01-27T08:12:54.415Z,2.10
2023-01-27T08:15:22.805Z,2.23
2023-01-27T08:17:54.981Z,2.34
2023-01-27T08:20:24.401Z,2.47
2023-01-27T08:22:52.732Z,2.56
2023-01-27T08:25:20.595Z,2.69
2023-01-27T08:27:50.720Z,2.85
2023-01-27T08:30:19.347Z,2.98
2023-01-27T08:32:47.799Z,3.15
2023-01-27T08:35:15.622Z,3.35
2023-01-27T08:37:43.232Z,3.53
2023-01-27T08:40:11.923Z,3.67
2023-01-27T08:42:39.734Z,3.82
2023-01-27T08:45:08.840Z,3.87
2023-01-27T08:47:36.534Z,3.88
2023-01-27T08:50:04.376Z,3.93
2023-01-27T08:52:32.129Z,4.10
2023-01-27T08:55:00.462Z,4.27
2023-01-27T08:57:28.353Z,4.45
2023-01-27T08:59:55.968Z,4.59
2023-01-27T09:02:24.382Z,4.89
2023-01-27T09:04:52.242Z,5.04
2023-01-27T09:07:19.981Z,5.10
2023-01-27T09:09:48.487Z,5.25
2023-01-27T09:12:16.595Z,5.51
2023-01-27T09:14:44.344Z,5.84
2023-01-27T09:17:12.013Z,6.22
2023-01-27T09:19:39.739Z,6.50
2023-01-27T09:22:07.437Z,6.66
2023-01-27T09:24:35.083Z,6.79
2023-01-27T09:27:02.777Z,6.88
2023-01-27T09:29:31.105Z,6.93
2023-01-27T09:31:59.411Z,6.93
2023-01-27T09:34:27.177Z,6.92
2023-01-27T09:37:01.277Z,6.88
2023-01-27T09:39:31.292Z,6.82
2023-01-27T09:42:08.899Z,6.69
2023-01-27T09:45:07.652Z,6.56
2023-01-27T09:47:46.497Z,6.51
2023-01-27T09:50:20.352Z,6.46
2023-01-27T09:52:57.802Z,6.36
2023-01-27T09:55:54.893Z,6.28
2023-01-27T09:58:31.415Z,6.13
2023-01-27T10:01:12.081Z,5.99
2023-01-27T10:04:12.729Z,5.85
2023-01-27T10:06:52.743Z,5.64
2023-01-27T10:09:23.143Z,5.48
2023-01-27T10:12:09.232Z,5.40
2023-01-27T10:14:39.580Z,5.29
2023-01-27T10:17:15.073Z,5.17
2023-01-27T10:20:05.575Z,5.07
2023-01-27T10:22:50.393Z,4.97
2023-01-27T10:25:33.032Z,4.89
2023-01-27T10:28:11.094Z,4.89
2023-01-27T10:30:56.128Z,4.94
2023-01-27T10:33:36.429Z,5.06
2023-01-27T10:36:16.771Z,5.22
2023-01-27T10:38:52.278Z,5.39
2023-01-27T10:41:51.267Z,5.47
2023-01-27T10:44:35.486Z,5.55
2023-01-27T10:47:09.251Z,5.63
2023-01-27T10:50:01.728Z,5.71
2023-01-27T10:52:48.976Z,5.73
2023-01-27T10:55:22.531Z,5.71
2023-01-27T10:58:04.750Z,5.69
2023-01-27T11:01:18.186Z,5.68
2023-01-27T11:03:34.698Z,5.63
2023-01-27T11:06:12.357Z,5.56
2023-01-27T11:08:44.986Z,5.51
2023-01-27T11:11:35.789Z,5.43
2023-01-27T11:14:12.601Z,5.30
2023-01-27T11:16:45.838Z,5.16
2023-01-27T11:19:42.498Z,5.03
2023-01-27T11:22:23.101Z,4.91
2023-01-27T11:25:14.850Z,4.81
2023-01-27T11:27:54.415Z,4.73
2023-01-27T11:30:32.346Z,4.64
2023-01-27T11:33:11.467Z,4.54
2023-01-27T11:35:39.166Z,4.45
2023-01-27T11:38:15.683Z,4.38
2023-01-27T11:40:45.819Z,4.33
2023-01-27T11:43:18.935Z,4.25
2023-01-27T11:45:48.457Z,4.15
2023-01-27T11:48:18.448Z,4.07
2023-01-27T11:50:46.878Z,3.98
2023-01-27T11:53:22.741Z,3.91
2023-01-27T11:55:57.374Z,3.87
2023-01-27T11:58:26.482Z,3.83
2023-01-27T12:00:59.039Z,3.79
2023-01-27T12:03:42.299Z,3.75
2023-01-27T12:06:33.776Z,3.73
2023-01-27T12:09:01.603Z,3.70
2023-01-27T12:11:31.197Z,3.72
2023-01-27T12:14:01.656Z,3.72
2023-01-27T12:16:42.798Z,3.72
2023-01-27T12:19:25.344Z,3.69
2023-01-27T12:21:58.041Z,3.60
2023-01-27T12:24:38.429Z,3.50
2023-01-27T12:27:07.526Z,3.41
2023-01-27T12:29:45.026Z,3.37
2023-01-27T12:32:21.514Z,3.35
2023-01-27T12:34:52.680Z,3.35
2023-01-27T12:37:29.294Z,3.35
2023-01-27T12:40:02.888Z,3.36
2023-01-27T12:42:36.514Z,3.37
2023-01-27T12:45:22.129Z,3.37
2023-01-27T12:48:10.195Z,3.32
2023-01-27T12:50:38.747Z,3.24
2023-01-27T12:53:23.597Z,3.18
2023-01-27T12:56:01.508Z,3.34
2023-01-27T12:58:55.302Z,3.41
2023-01-27T13:01:23.077Z,3.34
2023-01-27T13:04:18.494Z,3.33
2023-01-27T13:06:55.581Z,3.32
2023-01-27T13:09:23.341Z,3.37
2023-01-27T13:11:52.244Z,3.35
2023-01-27T13:14:20.132Z,3.29
2023-01-27T13:16:53.272Z,3.24
2023-01-27T13:19:29.831Z,3.19
2023-01-27T13:21:58.290Z,3.16
2023-01-27T13:24:37.165Z,3.14
2023-01-27T13:27:10.909Z,3.11
2023-01-27T13:29:40.739Z,3.09
2023-01-27T13:32:18.309Z,3.07
2023-01-27T13:34:50.513Z,3.04
2023-01-27T13:37:36.788Z,3.01
2023-01-27T13:40:22.471Z,2.97
2023-01-27T13:43:01.466Z,2.93
2023-01-27T13:45:47.405Z,2.91
2023-01-27T13:48:28.427Z,2.89
2023-01-27T13:51:06.818Z,2.88
2023-01-27T13:53:34.866Z,2.86
2023-01-27T13:56:11.641Z,2.84
2023-01-27T13:58:51.322Z,2.80
2023-01-27T14:01:37.917Z,2.76
2023-01-27T14:04:24.229Z,2.72
2023-01-27T14:06:54.935Z,2.67
2023-01-27T14:09:44.147Z,2.64
2023-01-27T14:12:27.385Z,2.60
2023-01-27T14:14:59.043Z,2.57
2023-01-27T14:17:38.921Z,2.55
2023-01-27T14:20:37.346Z,2.53
2023-01-27T14:23:05.048Z,2.49
2023-01-27T14:25:57.999Z,2.48
2023-01-27T14:28:33.677Z,2.46
2023-01-27T14:31:11.753Z,2.44
2023-01-27T14:34:00.722Z,2.41
2023-01-27T14:36:48.598Z,2.36
2023-01-27T14:39:29.171Z,2.32
2023-01-27T14:42:26.056Z,2.29
2023-01-27T14:45:15.998Z,2.28
2023-01-27T14:48:13.202Z,2.25
2023-01-27T14:50:59.513Z,2.21
2023-01-27T14:53:58.820Z,2.18
2023-01-27T14:56:59.962Z,2.14
2023-01-27T14:59:37.025Z,2.10
2023-01-27T15:02:17.593Z,2.08
2023-01-27T15:05:15.366Z,2.05
2023-01-27T15:07:48.739Z,2.02
2023-01-27T15:10:27.727Z,2.01
2023-01-27T15:13:36.293Z,1.99
2023-01-27T15:16:22.925Z,1.98
2023-01-27T15:19:26.460Z,1.96
2023-01-27T15:21:54.044Z,1.96
2023-01-27T15:24:45.394Z,1.95
2023-01-27T15:27:13.468Z,1.94
2023-01-27T15:29:41.381Z,1.94
2023-01-27T15:32:26.403Z,1.92
2023-01-27T15:35:29.224Z,1.90
2023-01-27T15:38:07.747Z,1.88
2023-01-27T15:40:57.811Z,1.87
2023-01-27T15:43:30.120Z,1.87
2023-01-27T15:46:18.594Z,1.86
2023-01-27T15:48:46.669Z,1.85
2023-01-27T15:51:20.301Z,1.86
2023-01-27T15:53:54.875Z,1.86
2023-01-27T15:56:41.622Z,1.85
2023-01-27T15:59:15.980Z,1.85
2023-01-27T16:01:43.683Z,1.84
2023-01-27T16:04:11.331Z,1.84
2023-01-27T16:06:52.762Z,1.83
2023-01-27T16:09:34.642Z,1.83
2023-01-27T16:12:31.446Z,1.83
2023-01-27T16:15:01.869Z,1.83
2023-01-27T16:17:33.315Z,1.83
2023-01-27T16:20:20.991Z,1.82
2023-01-27T16:22:58.329Z,1.80
2023-01-27T16:25:41.198Z,1.79
2023-01-27T16:28:20.003Z,1.79
2023-01-27T16:30:57.282Z,1.81
2023-01-27T16:33:31.094Z,1.81
2023-01-27T16:36:06.457Z,1.81
2023-01-27T16:38:37.005Z,1.81
2023-01-27T16:41:16.156Z,1.81
2023-01-27T16:43:48.689Z,1.80
2023-01-27T16:46:38.133Z,1.81
2023-01-27T16:49:32.222Z,1.81
2023-01-27T16:52:05.124Z,1.81
2023-01-27T16:54:40.038Z,1.83
2023-01-27T16:57:23.463Z,1.82
2023-01-27T16:59:52.251Z,1.82
2023-01-27T17:02:23.934Z,1.81
2023-01-27T17:04:56.127Z,1.80
2023-01-27T17:07:23.858Z,1.79
2023-01-27T17:09:54.850Z,1.78
2023-01-27T17:12:33.257Z,1.77
2023-01-27T17:15:15.561Z,1.75
2023-01-27T17:17:43.770Z,1.73
2023-01-27T17:20:23.832Z,1.72
2023-01-27T17:22:54.369Z,1.71
2023-01-27T17:25:41.669Z,1.70
2023-01-27T17:28:16.906Z,1.68
2023-01-27T17:30:46.822Z,1.68
2023-01-27T17:33:18.672Z,1.67
2023-01-27T17:35:52.479Z,1.66
2023-01-27T17:38:25.957Z,1.66
2023-01-27T17:40:55.080Z,1.65
2023-01-27T17:43:30.989Z,1.64
2023-01-27T17:46:14.924Z,1.62
2023-01-27T17:48:52.265Z,1.62
2023-01-27T17:51:25.585Z,1.61
2023-01-27T17:53:54.554Z,1.60
2023-01-27T17:56:27.841Z,1.60
2023-01-27T17:59:03.021Z,1.59
2023-01-27T18:01:31.657Z,1.58
2023-01-27T18:04:00.164Z,1.58
2023-01-27T18:06:32.105Z,1.58
2023-01-27T18:09:14.573Z,1.58
2023-01-27T18:12:01.311Z,1.57
2023-01-27T18:14:34.252Z,1.57
2023-01-27T18:17:23.081Z,1.56
2023-01-27T18:19:53.188Z,1.56
2023-01-27T18:22:22.452Z,1.57
2023-01-27T18:24:53.442Z,1.57
2023-01-27T18:27:28.065Z,1.58
2023-01-27T18:30:00.717Z,1.58
2023-01-27T18:32:37.658Z,1.60
2023-01-27T18:35:25.316Z,1.61
2023-01-27T18:38:01.625Z,1.60
2023-01-27T18:40:32.924Z,1.59
2023-01-27T18:43:02.483Z,1.59
2023-01-27T18:45:31.036Z,1.59
2023-01-27T18:47:59.564Z,1.58
2023-01-27T18:50:28.145Z,1.59
2023-01-27T18:52:55.755Z,1.59
2023-01-27T18:55:28.918Z,1.58
2023-01-27T18:57:58.780Z,1.58
2023-01-27T19:00:30.339Z,1.59
2023-01-27T19:03:01.051Z,1.59
2023-01-27T19:05:32.140Z,1.60
2023-01-27T19:08:00.709Z,1.59
2023-01-27T19:10:32.447Z,1.58
2023-01-27T19:13:02.617Z,1.59
2023-01-27T19:15:37.360Z,1.59
2023-01-27T19:18:24.314Z,1.60
2023-01-27T19:20:53.214Z,1.59
2023-01-27T19:23:21.653Z,1.60
2023-01-27T19:25:53.282Z,1.61
2023-01-27T19:28:29.061Z,1.62
2023-01-27T19:30:57.745Z,1.63
2023-01-27T19:33:28.054Z,1.64
2023-01-27T19:36:14.062Z,1.64
2023-01-27T19:38:41.770Z,1.65
2023-01-27T19:41:10.753Z,1.64
2023-01-27T19:43:38.515Z,1.62
2023-01-27T19:46:13.762Z,1.60
2023-01-27T19:48:41.775Z,1.59
2023-01-27T19:51:11.960Z,1.57
2023-01-27T19:53:39.670Z,1.56
2023-01-27T19:56:17.156Z,1.55
2023-01-27T19:58:47.188Z,1.56
2023-01-27T20:01:15.033Z,1.55
2023-01-27T20:03:42.823Z,1.56
2023-01-27T20:06:17.534Z,1.56
2023-01-27T20:08:45.214Z,1.57
2023-01-27T20:11:34.593Z,1.56
2023-01-27T20:14:26.141Z,1.56
2023-01-27T20:16:53.829Z,1.55
2023-01-27T20:19:21.495Z,1.55
2023-01-27T20:21:50.151Z,1.56
2023-01-27T20:24:19.771Z,1.58
2023-01-27T20:26:47.843Z,1.62
2023-01-27T20:29:15.598Z,1.65
2023-01-27T20:31:43.543Z,1.67
2023-01-27T20:34:11.499Z,1.69
2023-01-27T20:36:39.301Z,1.71
2023-01-27T20:39:06.998Z,1.72
2023-01-27T20:41:34.620Z,1.72
2023-01-27T20:44:02.365Z,1.73
2023-01-27T20:46:30.745Z,1.76
2023-01-27T20:48:58.998Z,1.76
2023-01-27T20:51:26.875Z,1.77
2023-01-27T20:53:54.885Z,1.78
2023-01-27T20:56:23.914Z,1.78
2023-01-27T20:58:51.763Z,1.78
2023-01-27T21:01:21.978Z,1.79
2023-01-27T21:03:50.581Z,1.80
2023-01-27T21:06:21.732Z,1.81
2023-01-27T21:08:49.732Z,1.83
2023-01-27T21:11:20.070Z,1.83
2023-01-27T21:13:48.822Z,1.81
2023-01-27T21:16:16.649Z,1.79
2023-01-27T21:18:44.583Z,1.79
2023-01-27T21:21:28.022Z,1.77
2023-01-27T21:23:57.395Z,1.72
2023-01-27T21:26:25.147Z,1.68
2023-01-27T21:28:53.243Z,1.65
2023-01-27T21:31:22.163Z,1.62
2023-01-27T21:33:50.752Z,1.67
2023-01-27T21:36:19.410Z,1.65
2023-01-27T21:38:50.333Z,1.58
2023-01-27T21:41:57.974Z,1.52
2023-01-27T21:44:46.763Z,1.48
2023-01-27T21:47:17.748Z,1.44
2023-01-27T21:50:02.841Z,1.43
2023-01-27T21:52:35.580Z,1.40
2023-01-27T21:55:06.291Z,1.40
2023-01-27T21:57:34.879Z,1.39
2023-01-27T22:00:05.301Z,1.37
2023-01-27T22:02:40.047Z,1.36
2023-01-27T22:05:09.618Z,1.35
2023-01-27T22:07:38.529Z,1.36
2023-01-27T22:10:08.996Z,1.43
2023-01-27T22:12:36.638Z,1.46
2023-01-27T22:15:06.445Z,1.42
2023-01-27T22:17:34.839Z,1.37
2023-01-27T22:20:04.019Z,1.33
2023-01-27T22:22:31.761Z,1.31
2023-01-27T22:24:59.476Z,1.29
2023-01-27T22:27:27.091Z,1.27
2023-01-27T22:29:54.719Z,1.26
2023-01-27T22:32:22.479Z,1.24
2023-01-27T22:34:50.714Z,1.22
2023-01-27T22:37:18.425Z,1.20
2023-01-27T22:39:46.064Z,1.20
2023-01-27T22:42:14.494Z,1.20
2023-01-27T22:44:42.145Z,1.19
2023-01-27T22:47:09.772Z,1.19
2023-01-27T22:49:37.471Z,1.18
2023-01-27T22:52:05.166Z,1.18
2023-01-27T22:54:32.827Z,1.20
2023-01-27T22:57:01.227Z,1.21
2023-01-27T22:59:29.002Z,1.22
2023-01-27T23:01:56.690Z,1.22
2023-01-27T23:04:24.373Z,1.21
2023-01-27T23:06:52.139Z,1.22
2023-01-27T23:09:19.791Z,1.22
2023-01-27T23:11:47.615Z,1.22
2023-01-27T23:14:15.257Z,1.22
2023-01-27T23:16:42.963Z,1.22
2023-01-27T23:19:11.019Z,1.22
2023-01-27T23:21:38.674Z,1.22
2023-01-27T23:24:07.757Z,1.22
2023-01-27T23:26:35.681Z,1.24
2023-01-27T23:29:05.186Z,1.25
2023-01-27T23:31:36.311Z,1.25
2023-01-27T23:34:04.087Z,1.25
2023-01-27T23:36:31.992Z,1.26
2023-01-27T23:38:59.672Z,1.26
2023-01-27T23:41:27.629Z,1.26
2023-01-27T23:43:56.581Z,1.27
2023-01-27T23:46:25.097Z,1.27
2023-01-27T23:48:54.808Z,1.27
2023-01-27T23:51:22.709Z,1.26
2023-01-27T23:53:51.178Z,1.26
2023-01-27T23:56:20.517Z,1.26
2023-01-27T23:58:48.470Z,1.26
